createdAt,value
2019-02-03T00:00:53.063Z,34.90
2019-02-03T00:01:53.204Z,32.80
2019-02-03T00:02:53.348Z,34.00
2019-02-03T00:03:53.494Z,37.90
2019-02-03T00:04:53.639Z,32.30
2019-02-03T00:05:53.779Z,30.90
2019-02-03T00:07:02.989Z,33.60
2019-02-03T00:07:54.068Z,34.70
2019-02-03T00:08:54.223Z,34.10
2019-02-03T00:09:54.352Z,34.30
2019-02-03T00:10:54.492Z,29.10
2019-02-03T00:11:54.741Z,33.70
2019-02-03T00:12:54.779Z,31.30
2019-02-03T00:13:54.922Z,36.10
2019-02-03T00:14:55.064Z,30.70
2019-02-03T00:15:55.206Z,33.60
2019-02-03T00:16:55.405Z,35.00
2019-02-03T00:17:55.441Z,30.20
2019-02-03T00:18:55.585Z,34.70
2019-02-03T00:19:55.728Z,32.00
2019-02-03T00:20:55.867Z,31.60
2019-02-03T00:21:56.043Z,32.60
2019-02-03T00:22:56.150Z,35.00
2019-02-03T00:23:56.292Z,33.10
2019-02-03T00:24:56.433Z,31.40
2019-02-03T00:25:56.579Z,32.00
2019-02-03T00:26:56.723Z,33.90
2019-02-03T00:27:56.863Z,32.30
2019-02-03T00:28:57.008Z,32.90
2019-02-03T00:29:57.151Z,32.20
2019-02-03T00:30:57.295Z,33.30
2019-02-03T00:31:57.444Z,33.20
2019-02-03T00:32:57.581Z,34.30
2019-02-03T00:33:57.826Z,34.90
2019-02-03T00:34:57.867Z,36.00
2019-02-03T00:35:58.007Z,32.90
2019-02-03T00:36:58.151Z,34.30
2019-02-03T00:37:58.351Z,32.60
2019-02-03T00:38:58.537Z,35.40
2019-02-03T00:39:58.619Z,34.90
2019-02-03T00:40:58.834Z,33.30
2019-02-03T00:41:58.876Z,37.30
2019-02-03T00:42:59.013Z,33.90
2019-02-03T00:43:59.158Z,36.60
2019-02-03T00:44:59.302Z,33.10
2019-02-03T00:45:59.446Z,37.40
2019-02-03T00:46:59.591Z,41.30
2019-02-03T00:47:59.736Z,35.80
2019-02-03T00:48:59.876Z,39.90
2019-02-03T00:50:00.023Z,40.40
2019-02-03T00:51:00.277Z,42.20
2019-02-03T00:52:00.310Z,38.30
2019-02-03T00:53:00.453Z,38.70
2019-02-03T00:54:00.598Z,39.50
2019-02-03T00:55:00.741Z,39.50
2019-02-03T00:56:00.887Z,42.60
2019-02-03T00:57:01.029Z,41.20
2019-02-03T00:58:01.173Z,41.60
2019-02-03T00:59:01.314Z,43.60
2019-02-03T01:00:01.462Z,45.10
2019-02-03T01:01:01.600Z,45.20
2019-02-03T01:02:01.741Z,43.90
2019-02-03T01:03:01.886Z,42.90
2019-02-03T01:04:02.029Z,44.70
2019-02-03T01:05:02.170Z,41.60
2019-02-03T01:06:02.314Z,44.20
2019-02-03T01:07:02.457Z,44.10
2019-02-03T01:08:02.601Z,48.80
2019-02-03T01:09:02.744Z,43.80
2019-02-03T01:10:02.887Z,43.50
2019-02-03T01:11:03.029Z,40.50
2019-02-03T01:12:03.173Z,44.00
2019-02-03T01:13:03.317Z,43.50
2019-02-03T01:14:03.458Z,44.60
2019-02-03T01:15:03.604Z,39.10
2019-02-03T01:16:03.746Z,46.20
2019-02-03T01:17:03.890Z,45.00
2019-02-03T01:18:04.032Z,43.80
2019-02-03T01:19:04.175Z,46.10
2019-02-03T01:20:04.319Z,44.90
2019-02-03T01:21:04.460Z,45.50
2019-02-03T01:22:04.602Z,43.30
2019-02-03T01:23:04.746Z,44.80
2019-02-03T01:24:04.892Z,44.40
2019-02-03T01:25:05.033Z,44.00
2019-02-03T01:26:05.175Z,44.40
2019-02-03T01:27:05.317Z,45.60
2019-02-03T01:28:05.462Z,41.40
2019-02-03T01:29:05.623Z,47.10
2019-02-03T01:30:05.747Z,41.90
2019-02-03T01:31:05.888Z,46.20
2019-02-03T01:32:06.031Z,44.20
2019-02-03T01:33:06.177Z,43.90
2019-02-03T01:34:06.319Z,45.90
2019-02-03T01:35:06.464Z,41.20
2019-02-03T01:36:06.608Z,41.70
2019-02-03T01:37:06.754Z,44.80
2019-02-03T01:38:06.892Z,48.10
2019-02-03T01:39:07.035Z,46.10
2019-02-03T01:40:07.180Z,40.40
2019-02-03T01:41:07.322Z,45.60
2019-02-03T01:42:07.465Z,48.20
2019-02-03T01:43:07.612Z,42.10
2019-02-03T01:44:07.750Z,49.10
2019-02-03T01:45:07.892Z,46.90
2019-02-03T01:46:08.038Z,45.70
2019-02-03T01:47:08.177Z,48.90
2019-02-03T01:48:08.319Z,48.10
2019-02-03T01:49:08.462Z,51.70
2019-02-03T01:50:08.604Z,47.20
2019-02-03T01:51:08.748Z,51.90
2019-02-03T01:52:08.893Z,57.60
2019-02-03T01:53:09.139Z,55.70
2019-02-03T01:54:09.180Z,56.00
2019-02-03T01:55:09.324Z,55.30
2019-02-03T01:56:09.465Z,59.00
2019-02-03T01:57:09.609Z,54.20
2019-02-03T01:58:09.753Z,64.90
2019-02-03T01:59:09.894Z,57.80
2019-02-03T02:00:10.035Z,60.40
2019-02-03T02:01:10.178Z,64.60
2019-02-03T02:02:10.321Z,61.10
2019-02-03T02:03:10.465Z,64.20
2019-02-03T02:04:10.607Z,63.70
2019-02-03T02:05:10.752Z,67.80
2019-02-03T02:06:10.895Z,61.30
2019-02-03T02:07:11.037Z,63.20
2019-02-03T02:08:11.180Z,61.00
2019-02-03T02:09:11.322Z,65.10
2019-02-03T02:10:11.464Z,65.00
2019-02-03T02:11:11.722Z,59.50
2019-02-03T02:12:11.748Z,64.50
2019-02-03T02:13:11.893Z,56.80
2019-02-03T02:14:12.036Z,61.50
2019-02-03T02:15:12.177Z,63.40
2019-02-03T02:16:12.321Z,58.10
2019-02-03T02:17:12.463Z,65.90
2019-02-03T02:18:12.606Z,57.30
2019-02-03T02:19:12.748Z,57.10
2019-02-03T02:20:12.892Z,56.00
2019-02-03T02:21:13.035Z,59.10
2019-02-03T02:22:13.177Z,56.40
2019-02-03T02:23:13.317Z,57.10
2019-02-03T02:24:13.460Z,50.40
2019-02-03T02:25:13.605Z,54.50
2019-02-03T02:26:13.748Z,54.70
2019-02-03T02:27:13.885Z,55.00
2019-02-03T02:28:14.028Z,50.90
2019-02-03T02:29:14.186Z,52.50
2019-02-03T02:30:14.334Z,50.40
2019-02-03T02:31:14.473Z,48.30
2019-02-03T02:32:14.617Z,47.40
2019-02-03T02:33:14.762Z,48.80
2019-02-03T02:34:14.924Z,46.60
2019-02-03T02:35:15.046Z,51.10
2019-02-03T02:36:15.189Z,50.70
2019-02-03T02:37:15.331Z,44.70
2019-02-03T02:38:15.474Z,46.00
2019-02-03T02:39:15.617Z,43.60
2019-02-03T02:40:15.757Z,42.70
2019-02-03T02:41:15.900Z,43.90
2019-02-03T02:42:16.043Z,44.20
2019-02-03T02:43:16.188Z,45.10
2019-02-03T02:44:16.329Z,45.90
2019-02-03T02:45:16.470Z,42.70
2019-02-03T02:46:16.616Z,46.60
2019-02-03T02:47:16.755Z,44.90
2019-02-03T02:48:16.897Z,45.10
2019-02-03T02:49:17.041Z,41.90
2019-02-03T02:50:17.191Z,48.70
2019-02-03T02:51:17.327Z,46.60
2019-02-03T02:52:17.473Z,45.70
2019-02-03T02:53:17.612Z,44.30
2019-02-03T02:54:17.758Z,41.30
2019-02-03T02:55:17.903Z,41.40
2019-02-03T02:56:18.039Z,42.80
2019-02-03T02:57:18.191Z,46.60
2019-02-03T02:58:18.331Z,42.70
2019-02-03T02:59:18.467Z,47.60
2019-02-03T03:00:18.610Z,48.50
2019-02-03T03:01:18.754Z,45.20
2019-02-03T03:02:18.898Z,46.90
2019-02-03T03:03:19.040Z,45.70
2019-02-03T03:04:19.185Z,44.70
2019-02-03T03:05:19.330Z,51.40
2019-02-03T03:06:19.469Z,47.00
2019-02-03T03:07:19.618Z,43.90
2019-02-03T03:08:19.922Z,43.60
2019-02-03T03:09:19.902Z,46.00
2019-02-03T03:10:20.044Z,44.20
2019-02-03T03:11:20.182Z,46.60
2019-02-03T03:12:20.339Z,46.90
2019-02-03T03:13:20.470Z,42.30
2019-02-03T03:14:20.615Z,43.90
2019-02-03T03:15:20.758Z,45.50
2019-02-03T03:16:20.904Z,46.90
2019-02-03T03:17:21.046Z,45.90
2019-02-03T03:18:21.187Z,46.70
2019-02-03T03:19:21.334Z,48.70
2019-02-03T03:20:21.473Z,48.70
2019-02-03T03:21:21.619Z,46.10
2019-02-03T03:22:21.763Z,47.70
2019-02-03T03:23:21.913Z,48.50
2019-02-03T03:24:22.132Z,56.30
2019-02-03T03:25:22.195Z,51.00
2019-02-03T03:26:22.335Z,54.20
2019-02-03T03:27:22.479Z,52.70
2019-02-03T03:28:22.623Z,51.90
2019-02-03T03:29:22.763Z,55.40
2019-02-03T03:30:22.907Z,52.20
2019-02-03T03:31:23.051Z,51.90
2019-02-03T03:32:23.193Z,55.00
2019-02-03T03:33:23.362Z,52.00
2019-02-03T03:34:23.492Z,50.70
2019-02-03T03:35:23.625Z,57.10
2019-02-03T03:36:23.765Z,58.40
2019-02-03T03:37:23.906Z,53.60
2019-02-03T03:38:32.213Z,51.30
2019-02-03T03:39:24.193Z,59.10
2019-02-03T03:40:24.336Z,56.50
2019-02-03T03:41:24.479Z,63.50
2019-02-03T03:42:24.625Z,60.60
2019-02-03T03:43:24.764Z,55.50
2019-02-03T03:44:24.903Z,53.40
2019-02-03T03:45:25.050Z,57.60
2019-02-03T03:46:25.192Z,56.30
2019-02-03T03:47:25.334Z,57.70
2019-02-03T03:48:25.479Z,51.70
2019-02-03T03:49:25.619Z,55.60
2019-02-03T03:50:25.764Z,57.60
2019-02-03T03:51:25.905Z,49.90
2019-02-03T03:52:26.048Z,59.70
2019-02-03T03:53:26.192Z,54.90
2019-02-03T03:54:26.331Z,55.90
2019-02-03T03:55:26.478Z,60.60
2019-02-03T03:56:26.619Z,62.90
2019-02-03T03:57:26.762Z,58.20
2019-02-03T03:58:26.909Z,57.60
2019-02-03T03:59:27.048Z,55.70
2019-02-03T04:00:27.194Z,56.90
2019-02-03T04:01:27.552Z,55.40
2019-02-03T04:02:27.475Z,54.20
2019-02-03T04:03:27.615Z,59.70
2019-02-03T04:04:27.762Z,56.20
2019-02-03T04:05:27.904Z,60.90
2019-02-03T04:06:28.045Z,52.90
2019-02-03T04:07:28.192Z,54.70
2019-02-03T04:08:28.333Z,53.10
2019-02-03T04:09:28.473Z,55.70
2019-02-03T04:10:28.619Z,56.60
2019-02-03T04:11:28.760Z,57.90
2019-02-03T04:12:28.899Z,62.10
2019-02-03T04:13:29.043Z,52.80
2019-02-03T04:14:29.182Z,54.90
2019-02-03T04:15:29.325Z,56.30
2019-02-03T04:16:29.469Z,56.30
2019-02-03T04:17:29.612Z,50.90
2019-02-03T04:18:29.749Z,56.90
2019-02-03T04:19:29.888Z,54.80
2019-02-03T04:20:30.096Z,52.90
2019-02-03T04:21:30.191Z,50.30
2019-02-03T04:22:30.318Z,56.90
2019-02-03T04:23:30.461Z,52.90
2019-02-03T04:24:30.601Z,53.90
2019-02-03T04:25:30.744Z,53.30
2019-02-03T04:26:30.886Z,51.10
2019-02-03T04:27:31.036Z,54.80
2019-02-03T04:28:31.174Z,56.00
2019-02-03T04:29:31.316Z,52.20
2019-02-03T04:30:31.459Z,50.40
2019-02-03T04:31:31.604Z,50.40
2019-02-03T04:32:31.745Z,54.80
2019-02-03T04:33:31.888Z,53.60
2019-02-03T04:34:32.037Z,53.30
2019-02-03T04:35:32.170Z,52.50
2019-02-03T04:36:32.315Z,57.40
2019-02-03T04:37:32.456Z,51.60
2019-02-03T04:38:32.601Z,53.50
2019-02-03T04:39:32.739Z,51.90
2019-02-03T04:40:32.883Z,51.30
2019-02-03T04:41:33.025Z,49.00
2019-02-03T04:42:33.168Z,46.10
2019-02-03T04:43:33.313Z,50.90
2019-02-03T04:44:33.455Z,48.80
2019-02-03T04:45:33.600Z,48.20
2019-02-03T04:46:33.742Z,47.20
2019-02-03T04:47:33.919Z,51.40
2019-02-03T04:48:34.064Z,46.20
2019-02-03T04:49:34.205Z,49.40
2019-02-03T04:50:35.103Z,52.50
2019-02-03T04:51:34.493Z,49.20
2019-02-03T04:52:34.634Z,45.10
2019-02-03T04:53:34.789Z,45.00
2019-02-03T04:54:34.922Z,47.70
2019-02-03T04:55:35.063Z,48.60
2019-02-03T04:56:35.213Z,48.00
2019-02-03T04:57:35.349Z,48.70
2019-02-03T04:58:35.491Z,43.00
2019-02-03T04:59:35.631Z,48.40
2019-02-03T05:00:35.774Z,45.30
2019-02-03T05:01:35.917Z,45.40
2019-02-03T05:02:36.061Z,47.80
2019-02-03T05:03:36.208Z,48.50
2019-02-03T05:04:36.350Z,47.10
2019-02-03T05:05:36.500Z,39.70
2019-02-03T05:06:36.635Z,42.90
2019-02-03T05:07:36.778Z,38.20
2019-02-03T05:08:36.922Z,42.80
2019-02-03T05:09:37.064Z,44.70
2019-02-03T05:10:37.206Z,42.30
2019-02-03T05:11:37.350Z,39.20
2019-02-03T05:12:37.495Z,36.60
2019-02-03T05:13:37.638Z,41.70
2019-02-03T05:14:37.780Z,41.00
2019-02-03T05:15:37.920Z,47.40
2019-02-03T05:16:38.064Z,40.40
2019-02-03T05:17:38.218Z,39.40
2019-02-03T05:18:38.349Z,40.00
2019-02-03T05:19:38.494Z,39.10
2019-02-03T05:20:38.635Z,45.90
2019-02-03T05:21:38.779Z,42.80
2019-02-03T05:22:38.919Z,36.50
2019-02-03T05:23:39.060Z,44.70
2019-02-03T05:24:39.204Z,43.30
2019-02-03T05:25:39.345Z,40.20
2019-02-03T05:26:39.487Z,41.20
2019-02-03T05:27:39.628Z,44.20
2019-02-03T05:28:39.774Z,41.40
2019-02-03T05:29:39.916Z,39.90
2019-02-03T05:30:40.061Z,42.10
2019-02-03T05:31:40.200Z,36.40
2019-02-03T05:32:40.343Z,41.70
2019-02-03T05:33:40.486Z,40.70
2019-02-03T05:34:40.629Z,40.30
2019-02-03T05:35:40.770Z,47.10
2019-02-03T05:36:41.016Z,42.60
2019-02-03T05:37:41.049Z,42.60
2019-02-03T05:38:41.190Z,42.60
2019-02-03T05:39:41.334Z,41.70
2019-02-03T05:40:41.475Z,42.90
2019-02-03T05:41:41.617Z,42.70
2019-02-03T05:42:41.761Z,41.60
2019-02-03T05:43:41.902Z,41.30
2019-02-03T05:44:42.045Z,43.90
2019-02-03T05:45:42.185Z,39.40
2019-02-03T05:46:42.328Z,42.40
2019-02-03T05:47:42.471Z,40.40
2019-02-03T05:48:42.615Z,47.30
2019-02-03T05:49:42.754Z,43.40
2019-02-03T05:50:42.897Z,39.50
2019-02-03T05:51:43.040Z,37.60
2019-02-03T05:52:43.201Z,40.20
2019-02-03T05:53:43.325Z,38.10
2019-02-03T05:54:43.467Z,37.50
2019-02-03T05:55:43.614Z,41.60
2019-02-03T05:56:43.753Z,39.40
2019-02-03T05:57:43.968Z,34.80
2019-02-03T05:58:44.033Z,43.40
2019-02-03T05:59:44.173Z,42.00
2019-02-03T06:00:44.339Z,42.10
2019-02-03T06:01:44.482Z,40.30
2019-02-03T06:02:44.622Z,42.30
2019-02-03T06:03:44.767Z,38.20
2019-02-03T06:04:44.909Z,43.80
2019-02-03T06:05:45.053Z,42.80
2019-02-03T06:06:45.195Z,42.90
2019-02-03T06:07:45.337Z,45.30
2019-02-03T06:08:45.483Z,44.10
2019-02-03T06:09:45.622Z,41.90
2019-02-03T06:10:45.766Z,38.90
2019-02-03T06:11:45.908Z,39.80
2019-02-03T06:12:46.052Z,46.00
2019-02-03T06:13:46.195Z,42.80
2019-02-03T06:14:46.336Z,39.20
2019-02-03T06:15:46.479Z,39.10
2019-02-03T06:16:46.621Z,42.50
2019-02-03T06:17:46.764Z,41.90
2019-02-03T06:18:46.909Z,39.40
2019-02-03T06:19:47.051Z,42.40
2019-02-03T06:20:47.192Z,39.10
2019-02-03T06:21:47.335Z,40.40
2019-02-03T06:22:47.507Z,42.50
2019-02-03T06:23:47.620Z,38.00
2019-02-03T06:24:47.762Z,39.10
2019-02-03T06:25:47.909Z,39.60
2019-02-03T06:26:48.045Z,41.10
2019-02-03T06:27:48.190Z,35.70
2019-02-03T06:28:48.333Z,39.60
2019-02-03T06:29:48.474Z,40.30
2019-02-03T06:30:48.615Z,42.40
2019-02-03T06:31:48.762Z,40.60
2019-02-03T06:32:48.901Z,43.30
2019-02-03T06:33:49.043Z,45.80
2019-02-03T06:34:49.188Z,38.00
2019-02-03T06:35:49.330Z,38.40
2019-02-03T06:36:51.750Z,39.10
2019-02-03T06:37:49.631Z,43.70
2019-02-03T06:38:49.759Z,35.70
2019-02-03T06:39:49.904Z,40.90
2019-02-03T06:40:50.127Z,37.90
2019-02-03T06:41:50.186Z,41.70
2019-02-03T06:42:50.329Z,36.80
2019-02-03T06:43:50.477Z,43.20
2019-02-03T06:44:50.625Z,42.20
2019-02-03T06:45:50.757Z,39.00
2019-02-03T06:46:50.899Z,38.80
2019-02-03T06:47:51.041Z,41.50
2019-02-03T06:48:51.190Z,44.70
2019-02-03T06:49:51.348Z,40.50
2019-02-03T06:50:51.470Z,37.30
2019-02-03T06:51:51.614Z,39.70
2019-02-03T06:52:51.755Z,36.70
2019-02-03T06:53:51.898Z,41.10
2019-02-03T06:54:52.039Z,35.20
2019-02-03T06:55:52.179Z,41.20
2019-02-03T06:56:52.321Z,38.70
2019-02-03T06:57:52.464Z,35.20
2019-02-03T06:58:52.608Z,34.10
2019-02-03T06:59:52.752Z,36.80
2019-02-03T07:00:52.895Z,37.30
2019-02-03T07:01:53.038Z,39.20
2019-02-03T07:02:53.179Z,35.40
2019-02-03T07:03:53.320Z,34.70
2019-02-03T07:04:53.464Z,37.30
2019-02-03T07:05:53.608Z,34.90
2019-02-03T07:06:53.754Z,41.80
2019-02-03T07:07:53.894Z,34.90
2019-02-03T07:08:54.036Z,37.20
2019-02-03T07:10:00.394Z,38.60
2019-02-03T07:10:54.324Z,37.90
2019-02-03T07:11:54.466Z,32.80
2019-02-03T07:12:54.612Z,36.60
2019-02-03T07:13:54.756Z,37.40
2019-02-03T07:14:54.898Z,32.30
2019-02-03T07:15:55.050Z,37.00
2019-02-03T07:16:55.185Z,36.60
2019-02-03T07:17:55.329Z,32.60
2019-02-03T07:18:55.471Z,30.20
2019-02-03T07:19:55.615Z,32.40
2019-02-03T07:20:55.756Z,33.60
2019-02-03T07:21:55.899Z,33.20
2019-02-03T07:22:56.044Z,33.40
2019-02-03T07:23:56.186Z,38.40
2019-02-03T07:24:56.328Z,34.30
2019-02-03T07:25:56.470Z,29.20
2019-02-03T07:26:56.613Z,30.60
2019-02-03T07:27:56.760Z,29.90
2019-02-03T07:28:56.903Z,33.80
2019-02-03T07:29:57.045Z,32.90
2019-02-03T07:30:57.189Z,29.00
2019-02-03T07:31:57.336Z,30.70
2019-02-03T07:32:57.475Z,31.30
2019-02-03T07:33:57.623Z,35.40
2019-02-03T07:34:57.764Z,31.40
2019-02-03T07:35:57.936Z,30.10
2019-02-03T07:36:58.048Z,30.80
2019-02-03T07:37:58.191Z,33.10
2019-02-03T07:38:58.338Z,33.00
2019-02-03T07:39:58.479Z,26.90
2019-02-03T07:40:58.620Z,31.80
2019-02-03T07:41:58.763Z,27.70
2019-02-03T07:42:58.909Z,28.40
2019-02-03T07:43:59.048Z,28.00
2019-02-03T07:44:59.191Z,29.80
2019-02-03T07:45:59.333Z,30.70
2019-02-03T07:46:59.475Z,28.90
2019-02-03T07:47:59.618Z,32.40
2019-02-03T07:48:59.764Z,29.40
2019-02-03T07:49:59.905Z,28.90
2019-02-03T07:51:00.050Z,28.40
2019-02-03T07:52:00.192Z,26.10
2019-02-03T07:53:00.340Z,30.00
2019-02-03T07:54:08.070Z,24.70
2019-02-03T07:55:00.710Z,31.60
2019-02-03T07:56:00.766Z,29.00
2019-02-03T07:57:00.910Z,27.70
2019-02-03T07:58:01.051Z,30.10
2019-02-03T07:59:01.192Z,25.40
2019-02-03T08:00:01.335Z,26.40
2019-02-03T08:01:01.480Z,24.20
2019-02-03T08:02:01.621Z,25.30
2019-02-03T08:03:01.763Z,26.30
2019-02-03T08:04:01.907Z,25.70
2019-02-03T08:05:02.051Z,28.80
2019-02-03T08:06:02.192Z,29.60
2019-02-03T08:07:02.337Z,28.20
2019-02-03T08:08:02.479Z,27.40
2019-02-03T08:09:02.622Z,24.90
2019-02-03T08:10:02.769Z,23.10
2019-02-03T08:11:04.670Z,27.10
2019-02-03T08:12:03.054Z,25.60
2019-02-03T08:13:03.200Z,27.20
2019-02-03T08:14:03.341Z,27.60
2019-02-03T08:15:03.484Z,26.70
2019-02-03T08:16:03.628Z,24.90
2019-02-03T08:17:03.772Z,26.40
2019-02-03T08:18:03.914Z,26.30
2019-02-03T08:19:04.060Z,25.20
2019-02-03T08:20:04.204Z,27.10
2019-02-03T08:21:04.346Z,22.20
2019-02-03T08:22:04.489Z,26.90
2019-02-03T08:23:04.635Z,24.20
2019-02-03T08:24:04.776Z,28.90
2019-02-03T08:25:04.920Z,29.30
2019-02-03T08:26:05.063Z,29.40
2019-02-03T08:27:05.210Z,30.50
2019-02-03T08:28:05.351Z,27.90
2019-02-03T08:29:05.495Z,27.90
2019-02-03T08:30:05.636Z,26.50
2019-02-03T08:31:05.782Z,30.40
2019-02-03T08:32:05.925Z,26.80
2019-02-03T08:33:06.069Z,29.30
2019-02-03T08:34:06.214Z,27.00
2019-02-03T08:35:06.356Z,27.50
2019-02-03T08:36:06.500Z,30.10
2019-02-03T08:37:06.641Z,30.00
2019-02-03T08:38:06.787Z,29.10
2019-02-03T08:39:06.933Z,29.70
2019-02-03T08:40:07.074Z,29.00
2019-02-03T08:41:07.218Z,26.90
2019-02-03T08:42:07.367Z,25.50
2019-02-03T08:43:07.507Z,29.60
2019-02-03T08:44:07.730Z,34.40
2019-02-03T08:45:07.795Z,27.50
2019-02-03T08:46:07.939Z,27.80
2019-02-03T08:47:08.082Z,30.30
2019-02-03T08:48:08.229Z,30.30
2019-02-03T08:49:08.373Z,31.70
2019-02-03T08:50:08.631Z,29.50
2019-02-03T08:51:08.660Z,27.60
2019-02-03T08:52:08.807Z,29.50
2019-02-03T08:53:08.953Z,36.60
2019-02-03T08:54:09.091Z,30.30
2019-02-03T08:55:09.235Z,31.40
2019-02-03T08:56:09.383Z,31.50
2019-02-03T08:57:09.520Z,31.50
2019-02-03T08:58:09.666Z,28.40
2019-02-03T08:59:09.808Z,30.90
2019-02-03T09:00:09.954Z,29.00
2019-02-03T09:01:10.096Z,32.90
2019-02-03T09:02:10.239Z,27.70
2019-02-03T09:03:10.381Z,32.50
2019-02-03T09:04:10.525Z,33.20
2019-02-03T09:05:10.669Z,34.00
2019-02-03T09:06:10.812Z,34.60
2019-02-03T09:07:10.957Z,31.20
2019-02-03T09:08:11.103Z,34.60
2019-02-03T09:09:11.243Z,29.00
2019-02-03T09:10:11.387Z,34.50
2019-02-03T09:11:11.535Z,33.30
2019-02-03T09:12:11.680Z,30.70
2019-02-03T09:13:11.823Z,34.90
2019-02-03T09:14:11.970Z,37.50
2019-02-03T09:15:12.114Z,33.70
2019-02-03T09:16:12.374Z,32.80
2019-02-03T09:17:12.402Z,30.20
2019-02-03T09:18:12.552Z,32.00
2019-02-03T09:19:12.691Z,30.10
2019-02-03T09:20:12.845Z,30.20
2019-02-03T09:21:12.986Z,29.60
2019-02-03T09:22:13.140Z,32.30
2019-02-03T09:23:13.288Z,36.10
2019-02-03T09:24:13.436Z,31.70
2019-02-03T09:25:13.574Z,33.10
2019-02-03T09:26:13.715Z,30.30
2019-02-03T09:27:13.861Z,32.30
2019-02-03T09:28:14.007Z,31.30
2019-02-03T09:29:14.153Z,30.80
2019-02-03T09:30:14.295Z,33.80
2019-02-03T09:31:14.466Z,32.80
2019-02-03T09:32:14.610Z,33.10
2019-02-03T09:33:14.757Z,30.90
2019-02-03T09:34:14.897Z,34.60
2019-02-03T09:35:15.039Z,29.50
2019-02-03T09:36:15.183Z,26.20
2019-02-03T09:37:15.340Z,27.20
2019-02-03T09:38:15.492Z,36.90
2019-02-03T09:39:15.636Z,33.00
2019-02-03T09:40:15.778Z,28.90
2019-02-03T09:41:15.922Z,32.30
2019-02-03T09:42:16.066Z,30.50
2019-02-03T09:43:16.211Z,25.90
2019-02-03T09:44:16.357Z,26.40
2019-02-03T09:45:16.497Z,25.80
2019-02-03T09:46:16.640Z,28.00
2019-02-03T09:47:16.782Z,24.10
2019-02-03T09:48:16.930Z,23.20
2019-02-03T09:49:17.073Z,24.80
2019-02-03T09:50:17.216Z,23.60
2019-02-03T09:51:17.360Z,25.20
2019-02-03T09:52:17.504Z,25.40
2019-02-03T09:53:17.664Z,22.90
2019-02-03T09:54:17.808Z,22.80
2019-02-03T09:55:17.977Z,24.40
2019-02-03T09:56:18.163Z,21.30
2019-02-03T09:57:18.314Z,23.00
2019-02-03T09:58:18.462Z,22.70
2019-02-03T09:59:18.610Z,23.00
2019-02-03T10:00:18.758Z,20.10
2019-02-03T10:01:18.905Z,20.50
2019-02-03T10:02:19.050Z,23.40
2019-02-03T10:03:19.192Z,20.40
2019-02-03T10:04:19.340Z,21.30
2019-02-03T10:05:19.486Z,21.10
2019-02-03T10:06:19.629Z,22.00
2019-02-03T10:07:19.775Z,22.60
2019-02-03T10:08:19.922Z,23.30
2019-02-03T10:09:20.065Z,21.00
2019-02-03T10:10:20.215Z,24.50
2019-02-03T10:11:22.862Z,22.00
2019-02-03T10:12:20.450Z,23.40
2019-02-03T10:13:20.588Z,21.90
2019-02-03T10:14:20.736Z,22.70
2019-02-03T10:15:20.989Z,22.90
2019-02-03T10:16:21.058Z,19.40
2019-02-03T10:17:21.214Z,18.40
2019-02-03T10:18:21.372Z,22.20
2019-02-03T10:19:21.515Z,23.00
2019-02-03T10:20:21.659Z,18.00
2019-02-03T10:21:21.813Z,19.60
2019-02-03T10:22:21.957Z,23.00
2019-02-03T10:23:22.103Z,24.00
2019-02-03T10:24:22.248Z,20.10
2019-02-03T10:25:22.405Z,18.50
2019-02-03T10:26:22.584Z,19.80
2019-02-03T10:27:22.734Z,20.20
2019-02-03T10:28:22.876Z,19.40
2019-02-03T10:29:23.019Z,19.20
2019-02-03T10:30:23.161Z,20.30
2019-02-03T10:31:23.306Z,20.00
2019-02-03T10:32:23.450Z,18.60
2019-02-03T10:33:23.597Z,18.40
2019-02-03T10:34:23.744Z,18.30
2019-02-03T10:35:23.995Z,18.70
2019-02-03T10:36:24.055Z,19.00
2019-02-03T10:37:24.187Z,18.00
2019-02-03T10:38:24.331Z,18.80
2019-02-03T10:39:24.475Z,20.40
2019-02-03T10:40:24.636Z,18.50
2019-02-03T10:41:24.854Z,18.00
2019-02-03T10:42:24.890Z,17.00
2019-02-03T10:43:25.058Z,18.20
2019-02-03T10:44:25.216Z,19.10
2019-02-03T10:45:25.473Z,18.20
2019-02-03T10:46:25.539Z,18.00
2019-02-03T10:47:25.697Z,17.90
2019-02-03T10:48:25.853Z,19.40
2019-02-03T10:49:26.074Z,20.00
2019-02-03T10:50:26.099Z,17.90
2019-02-03T10:51:26.278Z,18.10
2019-02-03T10:52:26.506Z,19.50
2019-02-03T10:53:26.598Z,20.10
2019-02-03T10:54:26.674Z,18.40
2019-02-03T10:55:26.945Z,20.10
2019-02-03T10:56:26.991Z,17.60
2019-02-03T10:57:27.137Z,20.60
2019-02-03T10:58:27.285Z,19.20
2019-02-03T10:59:27.428Z,18.10
2019-02-03T11:00:27.573Z,21.20
2019-02-03T11:01:27.715Z,20.20
2019-02-03T11:02:27.857Z,20.00
2019-02-03T11:03:28.006Z,20.00
2019-02-03T11:04:28.153Z,20.90
2019-02-03T11:05:28.302Z,22.90
2019-02-03T11:06:28.445Z,18.80
2019-02-03T11:07:28.589Z,15.90
2019-02-03T11:08:28.731Z,17.30
2019-02-03T11:09:28.876Z,17.50
2019-02-03T11:10:29.019Z,21.40
2019-02-03T11:11:36.463Z,17.70
2019-02-03T11:12:29.311Z,18.50
2019-02-03T11:13:29.457Z,19.50
2019-02-03T11:14:29.601Z,18.10
2019-02-03T11:15:29.751Z,17.90
2019-02-03T11:16:30.059Z,18.00
2019-02-03T11:17:30.059Z,21.00
2019-02-03T11:18:30.196Z,18.20
2019-02-03T11:19:30.340Z,20.40
2019-02-03T11:20:30.484Z,19.60
2019-02-03T11:21:30.629Z,22.20
2019-02-03T11:22:30.775Z,21.80
2019-02-03T11:23:30.920Z,19.80
2019-02-03T11:24:31.066Z,18.40
2019-02-03T11:25:31.210Z,20.70
2019-02-03T11:26:31.358Z,20.50
2019-02-03T11:27:31.503Z,22.50
2019-02-03T11:28:31.646Z,18.60
2019-02-03T11:29:31.798Z,20.20
2019-02-03T11:30:31.944Z,22.10
2019-02-03T11:31:32.085Z,21.80
2019-02-03T11:32:32.231Z,18.70
2019-02-03T11:33:32.376Z,20.40
2019-02-03T11:34:32.520Z,22.70
2019-02-03T11:35:32.665Z,18.50
2019-02-03T11:36:32.807Z,18.60
2019-02-03T11:37:32.961Z,20.30
2019-02-03T11:38:33.104Z,21.10
2019-02-03T11:39:33.261Z,20.10
2019-02-03T11:40:33.419Z,16.00
2019-02-03T11:41:33.562Z,16.40
2019-02-03T11:42:33.707Z,16.20
2019-02-03T11:43:33.890Z,18.10
2019-02-03T11:44:34.032Z,15.20
2019-02-03T11:45:34.182Z,22.80
2019-02-03T11:46:34.327Z,19.60
2019-02-03T11:47:34.474Z,18.60
2019-02-03T11:48:34.629Z,14.90
2019-02-03T11:49:34.789Z,16.20
2019-02-03T11:50:34.924Z,17.60
2019-02-03T11:51:35.077Z,17.60
2019-02-03T11:52:35.245Z,18.20
2019-02-03T11:53:35.396Z,18.90
2019-02-03T11:54:35.541Z,17.90
2019-02-03T11:55:35.687Z,16.60
2019-02-03T11:56:35.834Z,18.60
2019-02-03T11:57:35.980Z,15.60
2019-02-03T11:58:36.124Z,16.00
2019-02-03T11:59:36.273Z,19.30
2019-02-03T12:00:36.415Z,16.10
2019-02-03T12:01:36.566Z,17.40
2019-02-03T12:02:41.943Z,16.00
2019-02-03T12:03:36.853Z,14.20
2019-02-03T12:04:36.999Z,17.40
2019-02-03T12:05:37.141Z,15.80
2019-02-03T12:06:37.288Z,17.60
2019-02-03T12:07:37.435Z,16.20
2019-02-03T12:08:37.580Z,15.10
2019-02-03T12:09:37.753Z,15.40
2019-02-03T12:10:37.950Z,13.40
2019-02-03T12:11:37.974Z,14.90
2019-02-03T12:12:38.122Z,14.70
2019-02-03T12:13:38.400Z,14.80
2019-02-03T12:14:38.455Z,13.40
2019-02-03T12:15:38.624Z,14.90
2019-02-03T12:16:38.776Z,14.70
2019-02-03T12:17:38.935Z,16.90
2019-02-03T12:18:39.086Z,16.60
2019-02-03T12:19:39.250Z,15.60
2019-02-03T12:20:39.411Z,14.90
2019-02-03T12:21:39.619Z,17.50
2019-02-03T12:22:39.663Z,16.00
2019-02-03T12:23:39.811Z,14.40
2019-02-03T12:24:39.971Z,16.90
2019-02-03T12:25:40.138Z,17.80
2019-02-03T12:26:40.377Z,13.80
2019-02-03T12:27:40.402Z,13.80
2019-02-03T12:28:40.619Z,16.60
2019-02-03T12:29:40.638Z,17.60
2019-02-03T12:30:40.830Z,16.90
2019-02-03T12:31:41.127Z,15.60
2019-02-03T12:32:41.155Z,14.40
2019-02-03T12:33:41.430Z,15.60
2019-02-03T12:34:41.457Z,15.40
2019-02-03T12:35:41.611Z,16.70
2019-02-03T12:36:41.769Z,15.20
2019-02-03T12:37:41.935Z,17.10
2019-02-03T12:38:42.087Z,19.10
2019-02-03T12:39:42.243Z,15.00
2019-02-03T12:40:42.407Z,18.80
2019-02-03T12:41:42.571Z,15.80
2019-02-03T12:42:42.723Z,16.90
2019-02-03T12:43:42.879Z,18.60
2019-02-03T12:44:43.053Z,17.80
2019-02-03T12:45:43.202Z,18.80
2019-02-03T12:46:43.361Z,16.10
2019-02-03T12:47:43.504Z,14.70
2019-02-03T12:48:43.656Z,14.50
2019-02-03T12:49:43.802Z,16.40
2019-02-03T12:50:43.938Z,17.10
2019-02-03T12:51:44.083Z,17.50
2019-02-03T12:52:44.299Z,15.40
2019-02-03T12:53:44.330Z,14.30
2019-02-03T12:54:44.497Z,16.00